createdAt,value
2022-11-05T00:02:04.211Z,83.62891
2022-11-05T00:07:04.388Z,83.30078
2022-11-05T00:12:04.268Z,83.34766
2022-11-05T00:16:52.956Z,83.29883
2022-11-05T00:22:04.080Z,83.47949
2022-11-05T00:26:53.163Z,83.15234
2022-11-05T00:31:52.851Z,83.16504
2022-11-05T00:36:55.619Z,83.14355
2022-11-05T00:42:03.122Z,83.29883
2022-11-05T00:47:02.891Z,83.34082
2022-11-05T00:52:02.940Z,83.31152
2022-11-05T00:56:52.879Z,83.00195
2022-11-05T01:01:53.048Z,83.17969
2022-11-05T01:06:53.058Z,83.11914
2022-11-05T01:11:54.757Z,83.29785
2022-11-05T01:16:52.741Z,83.09668
2022-11-05T01:21:52.859Z,83.29883
2022-11-05T01:26:52.899Z,83.20605
2022-11-05T01:31:53.327Z,83.35059
2022-11-05T01:36:52.768Z,83.2373
2022-11-05T01:41:52.964Z,83.56055
2022-11-05T01:46:52.826Z,83.4873
2022-11-05T01:51:52.799Z,83.87109
2022-11-05T01:56:55.441Z,83.74414
2022-11-05T02:01:53.005Z,83.70898
2022-11-05T02:06:53.222Z,83.6123
2022-11-05T02:11:53.636Z,83.87793
2022-11-05T02:16:56.882Z,83.71777
2022-11-05T02:22:07.049Z,83.46191
2022-11-05T02:27:05.332Z,83.55078
2022-11-05T02:31:57.637Z,83.38086
2022-11-05T02:36:56.285Z,83.24609
2022-11-05T02:42:04.673Z,83.75
2022-11-05T02:46:57.956Z,83.45996
2022-11-05T02:51:55.568Z,83.44629
2022-11-05T02:56:55.386Z,83.46582
2022-11-05T03:01:53.815Z,83.5166
2022-11-05T03:07:09.795Z,83.57227
2022-11-05T03:11:58.558Z,83.78223
2022-11-05T03:16:56.863Z,83.64258
2022-11-05T03:21:54.976Z,83.83008
2022-11-05T03:26:56.584Z,83.76953
2022-11-05T03:31:55.020Z,83.68945
2022-11-05T03:36:56.870Z,83.60938
2022-11-05T03:41:54.731Z,83.8584
2022-11-05T03:46:54.552Z,84.0293
2022-11-05T03:51:55.340Z,84.23438
2022-11-05T03:56:59.099Z,84.58008
2022-11-05T04:01:53.414Z,84.15039
2022-11-05T04:07:04.126Z,84.28027
2022-11-05T04:12:04.148Z,84.23633
2022-11-05T04:17:10.447Z,84.17383
2022-11-05T04:22:03.968Z,84.32031
2022-11-05T04:26:52.848Z,84.37109
2022-11-05T04:31:52.679Z,84.12695
2022-11-05T04:36:53.473Z,84.32813
2022-11-05T04:41:52.787Z,84.06738
2022-11-05T04:46:52.870Z,84.56152
2022-11-05T04:51:52.662Z,84.75293
2022-11-05T04:56:52.778Z,84.29785
2022-11-05T05:01:54.618Z,84.53809
2022-11-05T05:06:52.928Z,84.66504
2022-11-05T05:11:55.461Z,84.90527
2022-11-05T05:16:53.980Z,85.53418
2022-11-05T05:21:52.679Z,85.24805
2022-11-05T05:26:54.908Z,85.2041
2022-11-05T05:31:52.801Z,85.06055
2022-11-05T05:36:52.680Z,84.71191
2022-11-05T05:41:52.766Z,84.61523
2022-11-05T05:46:55.373Z,84.62109
2022-11-05T05:51:54.285Z,85.05664
2022-11-05T05:56:55.063Z,85.10156
2022-11-05T06:01:53.053Z,84.94727
2022-11-05T06:06:55.584Z,85.19531
2022-11-05T06:11:52.771Z,84.95117
2022-11-05T06:16:52.827Z,84.875
2022-11-05T06:21:52.792Z,84.90527
2022-11-05T06:26:54.295Z,85.27148
2022-11-05T06:31:52.790Z,85.38965
2022-11-05T06:36:52.620Z,85.4502
2022-11-05T06:42:17.171Z,85.37305
2022-11-05T06:46:52.609Z,85.43848
2022-11-05T06:51:55.043Z,85.09668
2022-11-05T06:56:54.290Z,84.96875
2022-11-05T07:01:52.700Z,85.47852
2022-11-05T07:06:54.327Z,85.67188
2022-11-05T07:11:52.620Z,86.01172
2022-11-05T07:16:52.756Z,85.72266
2022-11-05T07:21:55.223Z,86.0791
2022-11-05T07:26:52.895Z,85.8916
2022-11-05T07:31:52.694Z,85.82031
2022-11-05T07:36:54.753Z,86.11426
2022-11-05T07:41:53.048Z,85.87695
2022-11-05T07:46:52.606Z,86.14844
2022-11-05T07:51:53.677Z,87.2041
2022-11-05T07:56:54.181Z,88.97559
2022-11-05T08:01:52.786Z,87.87207
2022-11-05T08:06:55.165Z,87.13867
2022-11-05T08:12:02.603Z,87.88672
2022-11-05T08:16:52.532Z,87.33008
2022-11-05T08:21:52.938Z,87.87988
2022-11-05T08:26:52.578Z,87.11426
2022-11-05T08:31:52.638Z,87.23145
2022-11-05T08:36:53.201Z,87.32422
2022-11-05T08:41:52.801Z,86.89355
2022-11-05T08:46:53.012Z,87.73047
2022-11-05T08:51:52.981Z,87.8877
2022-11-05T08:56:52.620Z,86.80469
2022-11-05T09:01:53.419Z,87.25293
2022-11-05T09:06:52.663Z,87.38867
2022-11-05T09:12:10.408Z,87.04395
2022-11-05T09:16:52.676Z,86.55762
2022-11-05T09:22:27.472Z,86.5166
2022-11-05T09:26:07.640Z,86.78223
2022-11-05T09:31:09.515Z,86.1582
2022-11-05T09:36:08.734Z,86.66309
2022-11-05T09:41:09.908Z,85.12891
2022-11-05T09:46:11.232Z,85.19629
2022-11-05T09:51:08.293Z,85.50977
2022-11-05T09:56:10.721Z,84.10742
2022-11-05T10:01:08.277Z,86.07813
2022-11-05T10:06:11.512Z,86.27148
2022-11-05T10:11:12.552Z,85.91016
2022-11-05T10:16:10.690Z,85.97754
2022-11-05T10:21:08.138Z,86.44434
2022-11-05T10:26:09.353Z,85.58203
2022-11-05T10:31:09.735Z,85.64063
2022-11-05T10:36:09.394Z,85.46191
2022-11-05T10:41:14.310Z,85.39551
2022-11-05T10:46:15.960Z,85.15039
2022-11-05T10:51:08.123Z,84.80078
2022-11-05T10:56:08.085Z,84.94141
2022-11-05T11:01:10.238Z,85.10645
2022-11-05T11:06:19.342Z,85.32715
2022-11-05T11:11:08.909Z,85.2998
2022-11-05T11:16:17.953Z,85.17773
2022-11-05T11:21:17.441Z,84.94141
2022-11-05T11:26:07.990Z,85.23828
2022-11-05T11:31:11.543Z,85.39941
2022-11-05T11:36:08.020Z,85.15527
2022-11-05T11:41:12.740Z,84.59473
2022-11-05T11:46:14.037Z,84.55664
2022-11-05T11:51:17.823Z,84.46582
2022-11-05T11:56:22.266Z,84.62793
2022-11-05T12:01:13.499Z,84.56152
2022-11-05T12:06:11.266Z,84.60547
2022-11-05T12:11:12.363Z,84.35645
2022-11-05T12:16:10.727Z,84.53906
2022-11-05T12:21:34.604Z,84.65918
2022-11-05T12:26:11.154Z,84.48145
2022-11-05T12:31:15.464Z,84.28613
2022-11-05T12:36:12.692Z,83.93066
2022-11-05T12:41:11.256Z,83.50391
2022-11-05T12:46:14.573Z,83.19434
2022-11-05T12:51:11.676Z,82.96484
2022-11-05T12:56:11.098Z,82.76953
2022-11-05T13:01:10.963Z,82.83203
2022-11-05T13:06:10.275Z,82.46582
2022-11-05T13:11:14.560Z,82.18164
2022-11-05T13:16:10.396Z,82.18164
2022-11-05T13:21:09.322Z,82.36523
2022-11-05T13:26:13.412Z,82.13379
2022-11-05T13:31:09.686Z,81.88281
2022-11-05T13:36:21.332Z,81.69922
2022-11-05T13:41:18.449Z,81.66602
2022-11-05T13:46:22.324Z,81.68457
2022-11-05T13:51:12.135Z,81.5332
2022-11-05T13:56:16.199Z,81.5127
2022-11-05T14:01:13.640Z,81.55566
2022-11-05T14:06:08.982Z,81.33301
2022-11-05T14:11:11.776Z,81.47168
2022-11-05T14:16:11.669Z,81.57715
2022-11-05T14:21:08.322Z,81.27344
2022-11-05T14:26:19.127Z,81.37109
2022-11-05T14:31:08.157Z,81.46582
2022-11-05T14:36:34.066Z,81.61328
2022-11-05T14:41:09.708Z,81.66504
2022-11-05T14:46:09.130Z,81.8877
2022-11-05T14:51:17.671Z,81.84668
2022-11-05T14:56:09.791Z,81.85645
2022-11-05T15:01:07.410Z,81.77734
2022-11-05T15:06:24.449Z,81.80371
2022-11-05T15:11:15.749Z,82.04883
2022-11-05T15:16:07.912Z,82.44141
2022-11-05T15:21:08.502Z,82.6416
2022-11-05T15:26:12.068Z,82.82129
2022-11-05T15:31:24.217Z,82.82715
2022-11-05T15:36:24.200Z,83.01855
2022-11-05T15:41:08.955Z,82.87891
2022-11-05T15:46:09.167Z,82.89453
2022-11-05T15:51:07.845Z,83.16406
2022-11-05T15:56:09.960Z,83.05762
2022-11-05T16:01:08.044Z,83.25879
2022-11-05T16:06:12.649Z,83.375
2022-11-05T16:11:10.677Z,83.67578
2022-11-05T16:16:08.851Z,83.96484
2022-11-05T16:21:11.822Z,84.15625
2022-11-05T16:26:07.564Z,84.33691
2022-11-05T16:31:11.279Z,84.39063
2022-11-05T16:36:08.261Z,84.64648
2022-11-05T16:41:07.766Z,84.80664
2022-11-05T16:46:09.484Z,85.08984
2022-11-05T16:51:07.638Z,85.22754
2022-11-05T16:56:08.004Z,85.07129
2022-11-05T17:01:09.246Z,85.2998
2022-11-05T17:06:08.068Z,85.32129
2022-11-05T17:11:07.567Z,85.54004
2022-11-05T17:16:08.168Z,85.4707
2022-11-05T17:21:10.820Z,85.21387
2022-11-05T17:26:09.122Z,85.98535
2022-11-05T17:31:08.729Z,86.34668
2022-11-05T17:36:09.064Z,86.24609
2022-11-05T17:41:13.631Z,86.47559
2022-11-05T17:46:12.756Z,86.55273
2022-11-05T17:51:08.111Z,86.65918
2022-11-05T17:56:11.052Z,86.69238
2022-11-05T18:01:07.510Z,86.78809
2022-11-05T18:06:10.703Z,87.15332
2022-11-05T18:11:07.741Z,87.37207
2022-11-05T18:16:07.493Z,87.42676
2022-11-05T18:21:07.829Z,87.78711
2022-11-05T18:26:11.414Z,88.10645
2022-11-05T18:31:08.423Z,87.88281
2022-11-05T18:36:07.892Z,87.9043
2022-11-05T18:41:12.596Z,88.0918
2022-11-05T18:46:08.292Z,87.81641
2022-11-05T18:51:10.604Z,88.06738
2022-11-05T18:56:10.170Z,87.91211
2022-11-05T19:01:08.541Z,88.19043
2022-11-05T19:06:09.906Z,88.07129
2022-11-05T19:11:11.003Z,88.03809
2022-11-05T19:16:09.463Z,87.9082
2022-11-05T19:21:10.818Z,87.85352
2022-11-05T19:26:07.728Z,87.79785
2022-11-05T19:31:10.602Z,87.64355
2022-11-05T19:36:08.131Z,87.56836
2022-11-05T19:41:13.664Z,87.51855
2022-11-05T19:46:08.161Z,87.40137
2022-11-05T19:51:08.717Z,87.32422
2022-11-05T19:56:07.834Z,87.13672
2022-11-05T20:01:08.362Z,87.11816
2022-11-05T20:06:11.412Z,86.97656
2022-11-05T20:11:09.695Z,86.92188
2022-11-05T20:16:07.696Z,86.84473
2022-11-05T20:21:11.954Z,86.78223
2022-11-05T20:26:10.162Z,86.74902
2022-11-05T20:31:16.513Z,86.64648
2022-11-05T20:36:09.013Z,86.63379
2022-11-05T20:41:09.065Z,86.50293
2022-11-05T20:46:08.433Z,86.36523
2022-11-05T20:51:08.007Z,86.47559
2022-11-05T20:56:08.333Z,86.39844
2022-11-05T21:01:09.761Z,86.4209
2022-11-05T21:06:07.936Z,86.4668
2022-11-05T21:11:07.673Z,86.52344
2022-11-05T21:16:14.046Z,86.46875
2022-11-05T21:21:08.193Z,86.44043
2022-11-05T21:26:10.986Z,86.42578
2022-11-05T21:31:13.685Z,86.43652
2022-11-05T21:36:08.954Z,86.45898
2022-11-05T21:41:08.093Z,86.59277
2022-11-05T21:46:10.017Z,86.52539
2022-11-05T21:51:18.827Z,86.51953
2022-11-05T21:56:20.373Z,86.45801
2022-11-05T22:01:11.053Z,86.69629
2022-11-05T22:06:07.592Z,86.83984
2022-11-05T22:11:07.494Z,87.11719
2022-11-05T22:16:07.780Z,87.12598
2022-11-05T22:21:07.690Z,87.05078
2022-11-05T22:26:07.576Z,87.38281
2022-11-05T22:31:14.811Z,87.30566
2022-11-05T22:36:07.492Z,87.35352
2022-11-05T22:41:10.030Z,87.35547
2022-11-05T22:46:11.283Z,87.4707
2022-11-05T22:51:10.772Z,87.71387
2022-11-05T22:56:10.660Z,87.74414
2022-11-05T23:01:15.899Z,87.68066
2022-11-05T23:06:19.169Z,87.79199
2022-11-05T23:11:18.875Z,87.58301
2022-11-05T23:16:18.876Z,87.7832
2022-11-05T23:21:22.848Z,87.81836
2022-11-05T23:26:18.322Z,87.7998
2022-11-05T23:31:41.634Z,88.04395
2022-11-05T23:36:18.964Z,88.27344
2022-11-05T23:41:19.663Z,88.35254
2022-11-05T23:46:25.245Z,88.66992
2022-11-05T23:51:10.736Z,88.57129
2022-11-05T23:56:10.131Z,88.64844
